createdAt,value
2023-03-01T00:01:07.737Z,59.51
2023-03-01T00:03:35.239Z,59.42
2023-03-01T00:06:02.838Z,59.39
2023-03-01T00:08:31.041Z,59.41
2023-03-01T00:11:05.693Z,59.44
2023-03-01T00:13:33.063Z,59.30
2023-03-01T00:15:59.890Z,59.47
2023-03-01T00:18:26.799Z,59.54
2023-03-01T00:20:55.274Z,59.51
2023-03-01T00:23:23.167Z,59.32
2023-03-01T00:25:50.139Z,59.36
2023-03-01T00:28:17.625Z,59.26
2023-03-01T00:30:44.651Z,59.15
2023-03-01T00:33:11.428Z,59.12
2023-03-01T00:35:38.613Z,59.24
2023-03-01T00:38:05.445Z,59.22
2023-03-01T00:40:36.129Z,58.98
2023-03-01T00:43:03.401Z,58.97
2023-03-01T00:45:32.036Z,58.94
2023-03-01T00:47:59.030Z,58.86
2023-03-01T00:50:25.844Z,58.87
2023-03-01T00:52:57.221Z,58.77
2023-03-01T00:55:25.257Z,58.84
2023-03-01T00:57:52.404Z,58.92
2023-03-01T01:00:20.776Z,58.86
2023-03-01T01:02:47.871Z,58.86
2023-03-01T01:05:15.221Z,58.93
2023-03-01T01:07:42.035Z,58.75
2023-03-01T01:10:09.647Z,58.72
2023-03-01T01:12:36.480Z,59.01
2023-03-01T01:15:03.458Z,58.96
2023-03-01T01:17:30.215Z,58.99
2023-03-01T01:19:56.998Z,58.85
2023-03-01T01:22:23.806Z,58.79
2023-03-01T01:24:50.630Z,58.79
2023-03-01T01:27:17.381Z,58.78
2023-03-01T01:29:44.182Z,58.74
2023-03-01T01:32:10.970Z,58.66
2023-03-01T01:34:37.790Z,58.73
2023-03-01T01:37:05.013Z,58.99
2023-03-01T01:39:31.742Z,58.76
2023-03-01T01:41:58.551Z,58.64
2023-03-01T01:44:27.875Z,58.60
2023-03-01T01:47:13.777Z,58.62
2023-03-01T01:49:54.794Z,58.70
2023-03-01T01:52:26.457Z,58.66
2023-03-01T01:55:01.621Z,58.73
2023-03-01T01:57:35.438Z,58.68
2023-03-01T02:00:08.743Z,58.63
2023-03-01T02:02:35.781Z,58.63
2023-03-01T02:05:11.347Z,58.62
2023-03-01T02:07:40.352Z,58.48
2023-03-01T02:10:07.629Z,58.37
2023-03-01T02:12:35.572Z,58.33
2023-03-01T02:15:02.404Z,58.41
2023-03-01T02:17:29.539Z,58.31
2023-03-01T02:20:16.938Z,58.29
2023-03-01T02:22:47.213Z,58.21
2023-03-01T02:25:34.176Z,58.16
2023-03-01T02:28:09.665Z,58.36
2023-03-01T02:30:36.989Z,58.36
2023-03-01T02:33:05.579Z,58.37
2023-03-01T02:35:36.961Z,58.45
2023-03-01T02:38:04.918Z,58.39
2023-03-01T02:40:34.280Z,58.30
2023-03-01T02:43:01.153Z,58.44
2023-03-01T02:45:28.587Z,58.48
2023-03-01T02:47:56.599Z,58.44
2023-03-01T02:50:27.964Z,58.62
2023-03-01T02:53:06.918Z,58.51
2023-03-01T02:55:33.781Z,58.47
2023-03-01T02:58:03.014Z,58.64
2023-03-01T03:00:35.330Z,58.64
2023-03-01T03:03:02.292Z,58.60
2023-03-01T03:05:31.593Z,58.53
2023-03-01T03:07:59.866Z,58.56
2023-03-01T03:10:30.106Z,58.54
2023-03-01T03:13:00.161Z,58.58
2023-03-01T03:15:28.407Z,58.64
2023-03-01T03:17:56.462Z,58.58
2023-03-01T03:20:26.389Z,58.55
2023-03-01T03:22:55.247Z,58.51
2023-03-01T03:25:23.341Z,58.33
2023-03-01T03:27:57.548Z,58.45
2023-03-01T03:30:27.798Z,58.51
2023-03-01T03:32:55.173Z,58.57
2023-03-01T03:35:25.455Z,58.42
2023-03-01T03:38:07.243Z,58.44
2023-03-01T03:40:37.854Z,58.62
2023-03-01T03:43:06.347Z,58.55
2023-03-01T03:45:34.506Z,58.68
2023-03-01T03:48:02.349Z,58.67
2023-03-01T03:50:29.200Z,58.54
2023-03-01T03:52:56.150Z,58.46
2023-03-01T03:55:23.005Z,58.49
2023-03-01T03:57:52.973Z,58.52
2023-03-01T04:00:24.861Z,58.53
2023-03-01T04:02:52.548Z,58.53
2023-03-01T04:05:20.118Z,58.68
2023-03-01T04:07:46.959Z,58.73
2023-03-01T04:10:17.176Z,58.60
2023-03-01T04:12:44.264Z,58.66
2023-03-01T04:15:16.142Z,58.62
2023-03-01T04:17:44.731Z,58.65
2023-03-01T04:20:13.549Z,58.65
2023-03-01T04:22:41.535Z,58.65
2023-03-01T04:25:08.748Z,58.60
2023-03-01T04:27:36.796Z,58.46
2023-03-01T04:30:04.921Z,58.51
2023-03-01T04:32:33.009Z,58.52
2023-03-01T04:35:00.108Z,58.43
2023-03-01T04:37:27.012Z,58.37
2023-03-01T04:39:54.107Z,58.44
2023-03-01T04:42:20.935Z,58.40
2023-03-01T04:44:47.682Z,58.27
2023-03-01T04:47:14.454Z,58.27
2023-03-01T04:49:41.169Z,58.31
2023-03-01T04:52:07.933Z,58.22
2023-03-01T04:54:36.861Z,58.24
2023-03-01T04:57:04.335Z,58.21
2023-03-01T04:59:31.128Z,58.09
2023-03-01T05:01:58.183Z,58.12
2023-03-01T05:04:25.699Z,58.15
2023-03-01T05:06:54.611Z,57.98
2023-03-01T05:09:21.393Z,58.04
2023-03-01T05:11:48.119Z,58.10
2023-03-01T05:14:14.952Z,58.00
2023-03-01T05:16:41.737Z,58.03
2023-03-01T05:19:16.465Z,57.97
2023-03-01T05:22:03.013Z,58.03
2023-03-01T05:24:34.288Z,58.00
2023-03-01T05:27:03.064Z,57.89
2023-03-01T05:29:32.184Z,57.95
2023-03-01T05:32:01.943Z,57.84
2023-03-01T05:34:34.462Z,57.85
2023-03-01T05:37:01.310Z,57.70
2023-03-01T05:39:29.944Z,57.70
2023-03-01T05:41:58.813Z,57.75
2023-03-01T05:44:26.484Z,57.75
2023-03-01T05:46:53.587Z,57.72
2023-03-01T05:49:20.481Z,57.68
2023-03-01T05:51:53.060Z,57.65
2023-03-01T05:54:21.636Z,57.54
2023-03-01T05:56:48.909Z,57.54
2023-03-01T05:59:17.417Z,57.50
2023-03-01T06:01:44.801Z,57.52
2023-03-01T06:04:11.685Z,57.53
2023-03-01T06:06:38.824Z,57.69
2023-03-01T06:09:08.401Z,57.76
2023-03-01T06:11:36.341Z,57.60
2023-03-01T06:14:03.850Z,57.60
2023-03-01T06:16:31.135Z,57.65
2023-03-01T06:18:58.122Z,57.62
2023-03-01T06:21:24.869Z,57.57
2023-03-01T06:23:52.922Z,57.48
2023-03-01T06:26:20.188Z,57.44
2023-03-01T06:28:47.272Z,57.37
2023-03-01T06:31:14.300Z,57.29
2023-03-01T06:33:41.069Z,57.37
2023-03-01T06:36:09.104Z,57.40
2023-03-01T06:38:35.997Z,57.27
2023-03-01T06:41:03.023Z,57.35
2023-03-01T06:43:29.780Z,57.26
2023-03-01T06:45:57.009Z,57.18
2023-03-01T06:48:23.800Z,57.17
2023-03-01T06:50:50.628Z,57.15
2023-03-01T06:53:17.542Z,57.12
2023-03-01T06:55:44.303Z,57.16
2023-03-01T06:58:12.141Z,57.00
2023-03-01T07:00:41.106Z,57.03
2023-03-01T07:03:07.980Z,56.98
2023-03-01T07:05:35.178Z,57.00
2023-03-01T07:08:01.957Z,57.05
2023-03-01T07:10:28.969Z,57.03
2023-03-01T07:12:57.715Z,56.91
2023-03-01T07:15:24.839Z,56.94
2023-03-01T07:17:52.103Z,56.87
2023-03-01T07:20:20.148Z,56.88
2023-03-01T07:22:46.905Z,56.80
2023-03-01T07:25:13.825Z,56.77
2023-03-01T07:27:41.420Z,56.81
2023-03-01T07:30:08.953Z,56.78
2023-03-01T07:32:35.853Z,56.79
2023-03-01T07:35:02.895Z,56.71
2023-03-01T07:37:29.678Z,56.75
2023-03-01T07:39:56.449Z,56.76
2023-03-01T07:42:23.213Z,56.79
2023-03-01T07:44:49.996Z,56.78
2023-03-01T07:47:17.020Z,56.76
2023-03-01T07:49:43.847Z,56.75
2023-03-01T07:52:14.192Z,56.75
2023-03-01T07:54:44.183Z,56.74
2023-03-01T07:57:11.505Z,56.71
2023-03-01T07:59:38.315Z,56.78
2023-03-01T08:02:05.248Z,56.85
2023-03-01T08:04:33.595Z,56.85
2023-03-01T08:07:00.438Z,56.88
2023-03-01T08:09:27.296Z,56.64
2023-03-01T08:11:55.550Z,56.65
2023-03-01T08:14:22.376Z,56.67
2023-03-01T08:16:51.107Z,56.64
2023-03-01T08:19:18.320Z,56.53
2023-03-01T08:21:45.133Z,56.52
2023-03-01T08:24:11.919Z,56.51
2023-03-01T08:26:38.778Z,56.40
2023-03-01T08:29:05.690Z,56.28
2023-03-01T08:31:36.657Z,56.25
2023-03-01T08:34:06.552Z,56.18
2023-03-01T08:36:38.234Z,56.13
2023-03-01T08:39:06.288Z,56.02
2023-03-01T08:41:33.109Z,56.05
2023-03-01T08:44:00.095Z,56.03
2023-03-01T08:46:32.310Z,55.91
2023-03-01T08:48:59.408Z,55.87
2023-03-01T08:51:26.944Z,55.78
2023-03-01T08:53:53.914Z,55.66
2023-03-01T08:56:21.572Z,55.59
2023-03-01T08:58:49.631Z,55.51
2023-03-01T09:01:19.136Z,55.43
2023-03-01T09:03:46.388Z,55.23
2023-03-01T09:06:13.590Z,55.29
2023-03-01T09:08:46.491Z,55.26
2023-03-01T09:11:17.041Z,55.18
2023-03-01T09:13:45.784Z,55.23
2023-03-01T09:16:14.684Z,55.17
2023-03-01T09:18:41.670Z,55.15
2023-03-01T09:21:25.027Z,55.15
2023-03-01T09:23:58.425Z,55.17
2023-03-01T09:26:25.738Z,55.09
2023-03-01T09:28:54.378Z,55.09
2023-03-01T09:31:22.494Z,54.99
2023-03-01T09:33:51.852Z,55.04
2023-03-01T09:36:21.991Z,54.98
2023-03-01T09:38:49.510Z,54.93
2023-03-01T09:41:26.360Z,54.84
2023-03-01T09:44:06.913Z,54.80
2023-03-01T09:46:42.026Z,54.71
2023-03-01T09:49:19.342Z,54.63
2023-03-01T09:52:10.811Z,54.59
2023-03-01T09:54:37.622Z,54.52
2023-03-01T09:57:12.652Z,54.51
2023-03-01T09:59:51.464Z,54.58
2023-03-01T10:02:43.204Z,54.59
2023-03-01T10:05:35.613Z,54.49
2023-03-01T10:08:21.341Z,54.45
2023-03-01T10:10:49.856Z,54.44
2023-03-01T10:13:24.096Z,54.46
2023-03-01T10:16:03.040Z,54.37
2023-03-01T10:18:34.690Z,54.37
2023-03-01T10:21:32.666Z,54.36
2023-03-01T10:24:11.941Z,54.31
2023-03-01T10:26:51.278Z,54.27
2023-03-01T10:29:21.074Z,54.32
2023-03-01T10:31:51.586Z,54.29
2023-03-01T10:34:21.494Z,54.21
2023-03-01T10:36:50.624Z,54.22
2023-03-01T10:39:23.977Z,54.20
2023-03-01T10:42:06.362Z,54.23
2023-03-01T10:44:43.525Z,54.19
2023-03-01T10:47:26.081Z,54.11
2023-03-01T10:49:55.889Z,54.08
2023-03-01T10:52:26.776Z,54.13
2023-03-01T10:55:21.845Z,54.16
2023-03-01T10:57:48.558Z,54.24
2023-03-01T11:00:23.465Z,54.24
2023-03-01T11:02:59.047Z,54.15
2023-03-01T11:05:29.435Z,54.14
2023-03-01T11:07:58.842Z,54.23
2023-03-01T11:10:31.649Z,54.26
2023-03-01T11:13:17.343Z,54.27
2023-03-01T11:16:00.031Z,54.29
2023-03-01T11:18:44.217Z,54.30
2023-03-01T11:21:13.148Z,54.33
2023-03-01T11:23:40.931Z,54.30
2023-03-01T11:26:12.422Z,54.26
2023-03-01T11:28:43.742Z,54.29
2023-03-01T11:31:16.037Z,54.29
2023-03-01T11:33:51.589Z,54.32
2023-03-01T11:36:36.785Z,54.30
2023-03-01T11:39:16.661Z,54.17
2023-03-01T11:41:44.078Z,54.19
2023-03-01T11:44:29.397Z,54.24
2023-03-01T11:47:02.458Z,54.15
2023-03-01T11:49:49.822Z,54.11
2023-03-01T11:52:50.683Z,54.10
2023-03-01T11:55:48.482Z,54.09
2023-03-01T11:58:45.743Z,54.07
2023-03-01T12:01:18.331Z,54.15
2023-03-01T12:03:56.737Z,54.11
2023-03-01T12:06:47.517Z,54.12
2023-03-01T12:09:52.883Z,54.11
2023-03-01T12:12:38.933Z,54.08
2023-03-01T12:15:31.784Z,54.10
2023-03-01T12:18:28.901Z,54.09
2023-03-01T12:21:04.681Z,54.13
2023-03-01T12:23:57.041Z,54.17
2023-03-01T12:26:29.561Z,54.13
2023-03-01T12:29:31.921Z,54.19
2023-03-01T12:32:30.182Z,54.25
2023-03-01T12:35:34.782Z,54.32
2023-03-01T12:38:23.394Z,54.36
2023-03-01T12:41:07.874Z,54.41
2023-03-01T12:44:02.321Z,54.44
2023-03-01T12:47:01.317Z,54.49
2023-03-01T12:49:34.701Z,54.49
2023-03-01T12:52:14.501Z,54.56
2023-03-01T12:54:42.472Z,54.55
2023-03-01T12:57:39.893Z,54.59
2023-03-01T13:00:28.127Z,54.63
2023-03-01T13:03:30.210Z,54.64
2023-03-01T13:06:09.450Z,54.68
2023-03-01T13:08:39.228Z,54.63
2023-03-01T13:11:21.908Z,54.62
2023-03-01T13:13:50.034Z,54.54
2023-03-01T13:16:29.434Z,54.51
2023-03-01T13:19:19.905Z,54.58
2023-03-01T13:21:48.545Z,54.59
2023-03-01T13:24:39.908Z,54.46
2023-03-01T13:27:23.251Z,54.55
2023-03-01T13:29:51.541Z,54.54
2023-03-01T13:32:43.691Z,54.58
2023-03-01T13:35:20.841Z,54.63
2023-03-01T13:37:47.959Z,54.65
2023-03-01T13:40:21.599Z,54.71
2023-03-01T13:43:03.137Z,54.93
2023-03-01T13:45:43.551Z,55.01
2023-03-01T13:48:12.254Z,54.84
2023-03-01T13:50:47.719Z,54.92
2023-03-01T13:53:21.165Z,55.09
2023-03-01T13:56:02.138Z,55.14
2023-03-01T13:58:31.763Z,55.06
2023-03-01T14:01:06.843Z,55.21
2023-03-01T14:03:41.291Z,55.22
2023-03-01T14:06:16.743Z,55.35
2023-03-01T14:08:46.738Z,55.28
2023-03-01T14:11:26.387Z,55.37
2023-03-01T14:14:30.869Z,55.42
2023-03-01T14:17:18.106Z,55.48
2023-03-01T14:19:47.446Z,55.66
2023-03-01T14:22:24.070Z,55.71
2023-03-01T14:24:56.774Z,55.84
2023-03-01T14:27:27.852Z,56.00
2023-03-01T14:30:04.533Z,56.00
2023-03-01T14:32:33.557Z,56.10
2023-03-01T14:35:01.260Z,56.10
2023-03-01T14:37:31.675Z,56.22
2023-03-01T14:39:59.985Z,56.33
2023-03-01T14:42:31.747Z,56.34
2023-03-01T14:45:01.381Z,56.40
2023-03-01T14:47:31.972Z,56.36
2023-03-01T14:50:41.705Z,56.37
2023-03-01T14:53:25.402Z,56.48
2023-03-01T14:55:58.059Z,56.57
2023-03-01T14:58:26.420Z,56.62
2023-03-01T15:00:59.079Z,56.68
2023-03-01T15:03:33.990Z,56.68
2023-03-01T15:06:05.367Z,56.64
2023-03-01T15:08:36.244Z,56.72
2023-03-01T15:11:14.832Z,56.71
2023-03-01T15:13:42.098Z,56.76
2023-03-01T15:16:12.773Z,56.81
2023-03-01T15:18:46.529Z,56.86
2023-03-01T15:21:24.046Z,56.92
2023-03-01T15:23:54.908Z,57.06
2023-03-01T15:26:31.518Z,57.14
2023-03-01T15:29:00.549Z,57.19
2023-03-01T15:31:32.695Z,57.30
2023-03-01T15:34:25.959Z,57.25
2023-03-01T15:37:00.109Z,57.52
2023-03-01T15:39:34.161Z,57.51
2023-03-01T15:42:02.454Z,57.72
2023-03-01T15:44:43.339Z,57.80
2023-03-01T15:47:24.450Z,57.84
2023-03-01T15:49:55.869Z,57.94
2023-03-01T15:52:40.579Z,57.96
2023-03-01T15:55:17.558Z,58.08
2023-03-01T15:57:44.496Z,58.14
2023-03-01T16:00:14.373Z,58.21
2023-03-01T16:02:42.664Z,58.35
2023-03-01T16:05:37.329Z,58.35
2023-03-01T16:08:07.091Z,58.33
2023-03-01T16:10:35.286Z,58.60
2023-03-01T16:13:02.181Z,58.69
2023-03-01T16:15:33.104Z,58.70
2023-03-01T16:18:00.320Z,58.76
2023-03-01T16:20:30.891Z,58.79
2023-03-01T16:23:01.257Z,58.99
2023-03-01T16:25:29.099Z,58.98
2023-03-01T16:27:57.093Z,59.14
2023-03-01T16:30:24.404Z,59.15
2023-03-01T16:32:51.939Z,59.17
2023-03-01T16:35:21.770Z,59.21
2023-03-01T16:37:49.519Z,59.28
2023-03-01T16:40:28.765Z,59.36
2023-03-01T16:43:00.442Z,59.29
2023-03-01T16:45:36.489Z,59.28
2023-03-01T16:48:05.127Z,59.32
2023-03-01T16:50:32.034Z,59.43
2023-03-01T16:52:59.268Z,59.62
2023-03-01T16:55:26.550Z,59.59
2023-03-01T16:57:53.638Z,59.60
2023-03-01T17:00:22.107Z,59.83
2023-03-01T17:02:49.541Z,59.77
2023-03-01T17:05:16.691Z,59.85
2023-03-01T17:07:43.467Z,60.02
2023-03-01T17:10:11.620Z,60.03
2023-03-01T17:12:39.489Z,60.04
2023-03-01T17:15:07.780Z,60.15
2023-03-01T17:17:36.569Z,60.09
2023-03-01T17:20:04.984Z,60.14
2023-03-01T17:22:32.500Z,60.15
2023-03-01T17:24:59.990Z,60.22
2023-03-01T17:27:27.130Z,60.27
2023-03-01T17:29:54.460Z,60.30
2023-03-01T17:32:22.059Z,60.45
2023-03-01T17:34:49.806Z,60.45
2023-03-01T17:37:17.475Z,60.51
2023-03-01T17:39:44.810Z,60.55
2023-03-01T17:42:11.940Z,60.72
2023-03-01T17:44:39.154Z,60.64
2023-03-01T17:47:07.075Z,60.65
2023-03-01T17:49:35.895Z,60.71
2023-03-01T17:52:04.070Z,60.75
2023-03-01T17:54:33.592Z,60.81
2023-03-01T17:57:01.386Z,60.99
2023-03-01T17:59:31.701Z,61.01
2023-03-01T18:02:02.981Z,61.02
2023-03-01T18:04:30.642Z,61.07
2023-03-01T18:06:59.255Z,61.01
2023-03-01T18:09:27.786Z,61.15
2023-03-01T18:11:55.420Z,61.21
2023-03-01T18:14:22.798Z,60.98
2023-03-01T18:16:51.159Z,61.08
2023-03-01T18:19:18.480Z,61.05
2023-03-01T18:21:46.449Z,61.17
2023-03-01T18:24:14.101Z,61.16
2023-03-01T18:26:41.723Z,61.35
2023-03-01T18:29:11.092Z,61.46
2023-03-01T18:31:38.740Z,61.38
2023-03-01T18:34:05.996Z,61.57
2023-03-01T18:36:38.312Z,61.59
2023-03-01T18:39:07.868Z,61.74
2023-03-01T18:41:37.089Z,61.75
2023-03-01T18:44:05.728Z,61.87
2023-03-01T18:46:36.123Z,61.90
2023-03-01T18:49:04.977Z,62.04
2023-03-01T18:51:33.010Z,61.94
2023-03-01T18:54:00.917Z,61.95
2023-03-01T18:56:32.700Z,61.83
2023-03-01T18:59:01.399Z,61.78
2023-03-01T19:01:31.197Z,61.98
2023-03-01T19:03:59.287Z,61.76
2023-03-01T19:06:32.369Z,61.70
2023-03-01T19:09:00.968Z,61.43
2023-03-01T19:11:32.676Z,61.58
2023-03-01T19:14:00.621Z,61.79
2023-03-01T19:16:31.051Z,61.81
2023-03-01T19:19:01.491Z,61.58
2023-03-01T19:21:35.019Z,61.89
2023-03-01T19:24:03.555Z,61.61
2023-03-01T19:26:31.778Z,61.37
2023-03-01T19:29:00.240Z,61.42
2023-03-01T19:31:31.313Z,61.19
2023-03-01T19:34:11.102Z,61.45
2023-03-01T19:36:44.272Z,61.72
2023-03-01T19:39:14.478Z,61.92
2023-03-01T19:41:42.499Z,61.89
2023-03-01T19:44:21.622Z,61.94
2023-03-01T19:46:55.793Z,62.00
2023-03-01T19:49:25.227Z,61.95
2023-03-01T19:51:53.432Z,61.94
2023-03-01T19:54:22.347Z,61.92
2023-03-01T19:56:51.978Z,61.96
2023-03-01T19:59:24.805Z,61.80
2023-03-01T20:01:53.924Z,61.90
2023-03-01T20:04:21.636Z,61.94
2023-03-01T20:06:49.956Z,61.96
2023-03-01T20:09:21.953Z,61.97
2023-03-01T20:11:51.133Z,62.03
2023-03-01T20:14:18.746Z,61.99
2023-03-01T20:16:46.046Z,61.99
2023-03-01T20:19:14.780Z,61.96
2023-03-01T20:21:45.061Z,61.98
2023-03-01T20:24:12.727Z,61.92
2023-03-01T20:26:41.572Z,61.81
2023-03-01T20:29:09.583Z,61.85
2023-03-01T20:31:37.556Z,61.94
2023-03-01T20:34:04.954Z,61.85
2023-03-01T20:36:32.154Z,61.90
2023-03-01T20:38:59.886Z,61.91
2023-03-01T20:41:29.571Z,61.79
2023-03-01T20:43:59.152Z,61.71
2023-03-01T20:46:27.377Z,61.68
2023-03-01T20:48:54.540Z,61.79
2023-03-01T20:51:21.934Z,61.96
2023-03-01T20:53:49.863Z,61.93
2023-03-01T20:56:18.746Z,61.87
2023-03-01T20:58:45.843Z,61.84
2023-03-01T21:01:18.252Z,61.78
2023-03-01T21:03:45.903Z,61.80
2023-03-01T21:06:13.868Z,61.85
2023-03-01T21:08:40.846Z,61.71
2023-03-01T21:11:08.345Z,61.71
2023-03-01T21:13:37.636Z,61.66
2023-03-01T21:16:08.040Z,61.84
2023-03-01T21:18:36.933Z,61.65
2023-03-01T21:21:07.542Z,61.66
2023-03-01T21:23:36.041Z,61.68
2023-03-01T21:26:08.495Z,61.77
2023-03-01T21:28:37.723Z,61.73
2023-03-01T21:31:10.625Z,61.68
2023-03-01T21:33:39.443Z,61.45
2023-03-01T21:36:09.326Z,61.59
2023-03-01T21:38:39.258Z,61.57
2023-03-01T21:41:15.959Z,61.60
2023-03-01T21:43:44.383Z,61.56
2023-03-01T21:46:15.229Z,61.56
2023-03-01T21:48:44.917Z,61.55
2023-03-01T21:51:15.083Z,61.57
2023-03-01T21:53:42.683Z,61.59
2023-03-01T21:56:10.629Z,61.44
2023-03-01T21:58:37.440Z,61.45
2023-03-01T22:01:09.506Z,61.42
2023-03-01T22:03:45.248Z,61.40
2023-03-01T22:06:22.779Z,61.38
2023-03-01T22:09:01.119Z,61.57
2023-03-01T22:11:28.559Z,61.34
2023-03-01T22:13:56.951Z,61.47
2023-03-01T22:16:27.633Z,61.41
2023-03-01T22:18:54.575Z,61.42
2023-03-01T22:21:23.103Z,61.45
2023-03-01T22:23:49.915Z,61.41
2023-03-01T22:26:35.857Z,61.63
2023-03-01T22:29:05.937Z,61.59
2023-03-01T22:31:32.812Z,61.60
2023-03-01T22:34:00.102Z,61.81
2023-03-01T22:36:28.049Z,61.76
2023-03-01T22:39:00.185Z,61.82
2023-03-01T22:41:31.948Z,61.79
2023-03-01T22:43:58.755Z,61.82
2023-03-01T22:46:26.704Z,61.73
2023-03-01T22:48:53.785Z,61.62
2023-03-01T22:51:23.976Z,61.65
2023-03-01T22:53:50.770Z,61.65
2023-03-01T22:56:23.847Z,61.76
2023-03-01T22:58:51.162Z,61.76
2023-03-01T23:01:23.951Z,61.72
2023-03-01T23:03:51.174Z,61.75
2023-03-01T23:06:20.251Z,61.78
2023-03-01T23:08:55.164Z,61.78
2023-03-01T23:11:23.410Z,61.80
2023-03-01T23:13:51.001Z,61.64
2023-03-01T23:16:18.573Z,61.65
2023-03-01T23:18:45.448Z,61.83
2023-03-01T23:21:15.198Z,61.83
2023-03-01T23:23:42.799Z,61.86
2023-03-01T23:26:09.927Z,61.78
2023-03-01T23:28:40.901Z,61.71
2023-03-01T23:31:14.899Z,61.73
2023-03-01T23:33:44.620Z,61.76
2023-03-01T23:36:20.059Z,61.77
2023-03-01T23:38:48.242Z,61.77
2023-03-01T23:41:17.592Z,61.72
2023-03-01T23:43:49.642Z,61.68
2023-03-01T23:46:18.565Z,61.59
2023-03-01T23:48:45.587Z,61.68
2023-03-01T23:51:13.077Z,61.75
2023-03-01T23:53:43.190Z,61.63
2023-03-01T23:56:13.901Z,61.65
2023-03-01T23:58:40.647Z,61.66
